| time (UTC) | temp C | wind direction | speed KPH | gust KPH | rain 1hr cm | rain 24hr cm | rain mn cm | humidity % | barometer mb |
| 20260507160901 | 14 | 38 | 1.6 | 1.6 | 0.00 | 0.00 | 0.00 | 84 | 1020.5 |
| 20260507160356 | 14 | 334 | 3.2 | 4.8 | 0.00 | 0.00 | 0.00 | 84 | 1021.0 |
| 20260507155853 | 14 | 3 | 6.4 | 11.3 | 0.00 | 0.00 | 0.00 | 84 | 1020.9 |
| 20260507155349 | 14 | 352 | 6.4 | 9.7 | 0.00 | 0.00 | 0.00 | 83 | 1020.8 |
| 20260507154845 | 14 | 325 | 12.9 | 16.1 | 0.00 | 0.00 | 0.00 | 84 | 1020.8 |
| 20260507154343 | 14 | 34 | 0.0 | 0.0 | 0.00 | 0.00 | 0.00 | 84 | 1020.6 |
| 20260507153921 | 14 | 4 | 12.9 | 16.1 | 0.00 | 0.00 | 0.00 | 84 | 1020.8 |
| 20260507153840 | 14 | 4 | 12.9 | 16.1 | 0.00 | 0.00 | 0.00 | 84 | 1020.8 |
| 20260507153336 | 14 | 354 | 9.7 | 16.1 | 0.00 | 0.00 | 0.00 | 84 | 1020.5 |
| 20260507152850 | 14 | 333 | 6.4 | 16.1 | 0.00 | 0.00 | 0.00 | 85 | 1020.5 |
| 20260507152833 | 14 | 21 | 4.8 | 9.7 | 0.00 | 0.00 | 0.00 | 85 | 1020.5 |
| 20260507152329 | 14 | 333 | 6.4 | 16.1 | 0.00 | 0.00 | 0.00 | 85 | 1020.5 |
| 20260507152006 | 14 | 289 | 12.9 | 16.1 | 0.00 | 0.00 | 0.00 | 85 | 1021.0 |
| 20260507151825 | 14 | 289 | 12.9 | 16.1 | 0.00 | 0.00 | 0.00 | 85 | 1021.0 |
| 20260507151322 | 14 | 30 | 9.7 | 16.1 | 0.00 | 0.00 | 0.00 | 86 | 1020.5 |
| 20260507150819 | 14 | 17 | 3.2 | 4.8 | 0.00 | 0.00 | 0.00 | 86 | 1020.7 |
| 20260507150315 | 14 | 345 | 9.7 | 11.3 | 0.00 | 0.00 | 0.00 | 86 | 1020.7 |
| 20260507145811 | 14 | 28 | 8.0 | 9.7 | 0.00 | 0.00 | 0.00 | 86 | 1020.6 |
| 20260507145308 | 14 | 21 | 3.2 | 6.4 | 0.00 | 0.00 | 0.00 | 87 | 1020.9 |
| 20260507144805 | 14 | 4 | 9.7 | 12.9 | 0.00 | 0.00 | 0.00 | 87 | 1020.8 |
| 20260507144302 | 15 | 328 | 8.0 | 16.1 | 0.00 | 0.00 | 0.00 | 87 | 1020.5 |
| 20260507143759 | 15 | 309 | 9.7 | 12.9 | 0.00 | 0.00 | 0.00 | 87 | 1020.5 |
| 20260507143256 | 14 | 1 | 8.0 | 14.5 | 0.00 | 0.00 | 0.00 | 87 | 1020.4 |
| 20260507142752 | 15 | 359 | 19.3 | 29.0 | 0.00 | 0.00 | 0.00 | 87 | 1020.0 |
| 20260507142249 | 14 | 359 | 11.3 | 16.1 | 0.00 | 0.00 | 0.00 | 87 | 1019.9 |
| 20260507141745 | 14 | 0 | 6.4 | 11.3 | 0.00 | 0.00 | 0.00 | 89 | 1020.3 |
| 20260507141242 | 14 | 24 | 11.3 | 17.7 | 0.00 | 0.00 | 0.00 | 90 | 1020.2 |
| 20260507140738 | 14 | 353 | 16.1 | 20.9 | 0.00 | 0.00 | 0.00 | 90 | 1020.1 |
| 20260507140236 | 14 | 269 | 11.3 | 20.9 | 0.00 | 0.00 | 0.00 | 90 | 1020.1 |
| 20260507135733 | 14 | 323 | 9.7 | 14.5 | 0.00 | 0.00 | 0.00 | 90 | 1020.2 |
| 20260507135230 | 14 | 321 | 14.5 | 22.5 | 0.00 | 0.00 | 0.00 | 90 | 1020.0 |
| 20260507134726 | 14 | 342 | 8.0 | 11.3 | 0.00 | 0.00 | 0.00 | 90 | 1019.6 |
| 20260507134223 | 14 | 351 | 9.7 | 14.5 | 0.00 | 0.00 | 0.00 | 91 | 1019.6 |
| 20260507133719 | 14 | 1 | 6.4 | 14.5 | 0.00 | 0.00 | 0.00 | 91 | 1019.7 |
| 20260507133216 | 14 | 29 | 8.0 | 9.7 | 0.00 | 0.00 | 0.00 | 92 | 1019.7 |
| 20260507132713 | 14 | 2 | 6.4 | 11.3 | 0.00 | 0.00 | 0.00 | 92 | 1019.8 |
| 20260507132210 | 14 | 274 | 11.3 | 14.5 | 0.00 | 0.00 | 0.00 | 92 | 1019.6 |
| 20260507131706 | 14 | 353 | 8.0 | 12.9 | 0.00 | 0.00 | 0.00 | 92 | 1019.6 |
| 20260507131204 | 14 | 39 | 19.3 | 22.5 | 0.00 | 0.00 | 0.00 | 92 | 1019.7 |
| 20260507130700 | 14 | 332 | 6.4 | 9.7 | 0.00 | 0.00 | 0.00 | 93 | 1019.8 |
| 20260507130158 | 14 | 329 | 9.7 | 12.9 | 0.00 | 0.00 | 0.00 | 93 | 1020.0 |
| 20260507125657 | 14 | 322 | 6.4 | 6.4 | 0.00 | 0.00 | 0.00 | 93 | 1019.9 |
| 20260507125154 | 14 | 342 | 8.0 | 9.7 | 0.00 | 0.00 | 0.00 | 93 | 1019.4 |
| 20260507124650 | 14 | 4 | 6.4 | 11.3 | 0.00 | 0.00 | 0.00 | 94 | 1019.8 |
| 20260507124148 | 14 | 28 | 6.4 | 14.5 | 0.00 | 0.00 | 0.00 | 94 | 1019.7 |
| 20260507123646 | 14 | 356 | 16.1 | 17.7 | 0.00 | 0.00 | 0.00 | 94 | 1019.7 |
| 20260507123143 | 14 | 338 | 6.4 | 9.7 | 0.00 | 0.00 | 0.00 | 94 | 1019.7 |
| 20260507122638 | 14 | 333 | 12.9 | 14.5 | 0.00 | 0.00 | 0.00 | 94 | 1019.7 |
| 20260507122134 | 14 | 323 | 11.3 | 16.1 | 0.00 | 0.00 | 0.00 | 93 | 1019.7 |
| 20260507121630 | 14 | 16 | 19.3 | 22.5 | 0.00 | 0.00 | 0.00 | 93 | 1019.4 |
| 20260507121125 | 14 | 327 | 9.7 | 16.1 | 0.00 | 0.00 | 0.00 | 93 | 1019.0 |
| 20260507120621 | 14 | 352 | 14.5 | 17.7 | 0.00 | 0.00 | 0.00 | 93 | 1018.9 |
| 20260507120113 | 14 | 3 | 8.0 | 12.9 | 0.00 | 0.00 | 0.00 | 93 | 1018.8 |
| 20260507115610 | 14 | 0 | 6.4 | 9.7 | 0.00 | 0.00 | 0.00 | 93 | 1018.7 |
| 20260507115105 | 14 | 353 | 11.3 | 17.7 | 0.00 | 0.00 | 0.00 | 93 | 1018.7 |
| 20260507114601 | 14 | 355 | 8.0 | 9.7 | 0.00 | 0.00 | 0.00 | 93 | 1018.7 |
| 20260507114059 | 14 | 15 | 4.8 | 4.8 | 0.00 | 0.00 | 0.00 | 93 | 1018.8 |
| 20260507113555 | 14 | 349 | 14.5 | 20.9 | 0.00 | 0.00 | 0.00 | 93 | 1018.5 |
| 20260507113053 | 14 | 338 | 9.7 | 14.5 | 0.00 | 0.00 | 0.00 | 93 | 1018.8 |
| 20260507112551 | 14 | 322 | 8.0 | 12.9 | 0.00 | 0.00 | 0.00 | 93 | 1018.7 |
| 20260507112047 | 14 | 34 | 9.7 | 14.5 | 0.00 | 0.00 | 0.00 | 93 | 1018.8 |
| 20260507111544 | 14 | 349 | 8.0 | 11.3 | 0.00 | 0.00 | 0.00 | 93 | 1018.6 |
| 20260507111041 | 14 | 345 | 9.7 | 14.5 | 0.00 | 0.00 | 0.00 | 93 | 1018.8 |
| 20260507110537 | 14 | 317 | 6.4 | 6.4 | 0.00 | 0.00 | 0.00 | 93 | 1018.7 |
| 20260507110034 | 14 | 355 | 11.3 | 17.7 | 0.00 | 0.00 | 0.00 | 93 | 1018.6 |
| 20260507105531 | 13 | 3 | 12.9 | 14.5 | 0.00 | 0.00 | 0.00 | 93 | 1018.7 |
| 20260507105027 | 13 | 357 | 14.5 | 17.7 | 0.00 | 0.00 | 0.00 | 93 | 1018.8 |
| 20260507104525 | 14 | 358 | 9.7 | 14.5 | 0.00 | 0.00 | 0.00 | 93 | 1019.1 |
| 20260507104021 | 14 | 348 | 16.1 | 20.9 | 0.00 | 0.00 | 0.00 | 93 | 1018.9 |
| 20260507103517 | 14 | 326 | 3.2 | 6.4 | 0.00 | 0.00 | 0.00 | 93 | 1018.5 |
| 20260507103014 | 14 | 341 | 12.9 | 14.5 | 0.00 | 0.00 | 0.00 | 92 | 1017.9 |
| 20260507102510 | 14 | 41 | 6.4 | 9.7 | 0.00 | 0.00 | 0.00 | 92 | 1018.2 |
| 20260507102007 | 14 | 311 | 12.9 | 16.1 | 0.00 | 0.00 | 0.00 | 92 | 1018.3 |
| 20260507101502 | 14 | 352 | 4.8 | 4.8 | 0.00 | 0.00 | 0.00 | 92 | 1018.3 |
| 20260507100958 | 14 | 16 | 9.7 | 17.7 | 0.00 | 0.00 | 0.00 | 92 | 1018.3 |
| 20260507100456 | 14 | 5 | 12.9 | 17.7 | 0.00 | 0.00 | 0.00 | 92 | 1017.9 |
| 20260507095954 | 14 | 12 | 6.4 | 9.7 | 0.00 | 0.00 | 0.00 | 92 | 1018.4 |
| 20260507095452 | 14 | 15 | 4.8 | 6.4 | 0.00 | 0.00 | 0.00 | 92 | 1018.5 |
| 20260507094948 | 14 | 359 | 3.2 | 3.2 | 0.00 | 0.00 | 0.00 | 92 | 1018.7 |
| 20260507094444 | 14 | 342 | 8.0 | 16.1 | 0.00 | 0.00 | 0.00 | 92 | 1018.6 |
| 20260507093941 | 14 | 13 | 8.0 | 14.5 | 0.00 | 0.00 | 0.00 | 92 | 1018.3 |
| 20260507093439 | 14 | 335 | 3.2 | 9.7 | 0.00 | 0.00 | 0.00 | 92 | 1018.4 |
| 20260507092937 | 14 | 9 | 6.4 | 9.7 | 0.00 | 0.00 | 0.00 | 92 | 1018.2 |
| 20260507092433 | 14 | 348 | 9.7 | 14.5 | 0.00 | 0.00 | 0.00 | 91 | 1018.2 |
| 20260507091930 | 14 | 347 | 8.0 | 9.7 | 0.00 | 0.00 | 0.00 | 91 | 1018.3 |
| 20260507091426 | 14 | 339 | 3.2 | 3.2 | 0.00 | 0.00 | 0.00 | 91 | 1018.2 |
| 20260507090916 | 14 | 4 | 3.2 | 4.8 | 0.00 | 0.00 | 0.00 | 91 | 1017.9 |
| 20260507090413 | 14 | 339 | 4.8 | 4.8 | 0.00 | 0.00 | 0.00 | 92 | 1017.8 |
| 20260507085910 | 14 | 10 | 6.4 | 6.4 | 0.00 | 0.00 | 0.00 | 91 | 1017.5 |
| 20260507085407 | 14 | 8 | 6.4 | 6.4 | 0.00 | 0.00 | 0.00 | 91 | 1017.4 |
| 20260507084904 | 14 | 347 | 6.4 | 11.3 | 0.00 | 0.00 | 0.00 | 91 | 1017.4 |
| 20260507084401 | 14 | 340 | 4.8 | 6.4 | 0.00 | 0.00 | 0.00 | 91 | 1017.3 |
| 20260507083858 | 14 | 16 | 4.8 | 6.4 | 0.00 | 0.00 | 0.00 | 91 | 1017.8 |
| 20260507083354 | 14 | 342 | 6.4 | 6.4 | 0.00 | 0.00 | 0.00 | 91 | 1017.4 |
| 20260507082850 | 15 | 340 | 4.8 | 4.8 | 0.00 | 0.00 | 0.00 | 91 | 1017.4 |
| 20260507082346 | 14 | 350 | 3.2 | 4.8 | 0.00 | 0.00 | 0.00 | 91 | 1017.2 |
| 20260507081843 | 14 | 27 | 4.8 | 6.4 | 0.00 | 0.00 | 0.00 | 91 | 1017.2 |
| 20260507081339 | 15 | 351 | 4.8 | 6.4 | 0.00 | 0.00 | 0.00 | 91 | 1017.4 |
| 20260507080837 | 15 | 50 | 8.0 | 11.3 | 0.00 | 0.00 | 0.00 | 91 | 1017.4 |
| 20260507080332 | 15 | 12 | 11.3 | 12.9 | 0.00 | 0.00 | 0.00 | 91 | 1017.1 |
| 20260507075828 | 15 | 340 | 4.8 | 9.7 | 0.00 | 0.00 | 0.00 | 91 | 1016.7 |
| 20260507075324 | 15 | 21 | 4.8 | 6.4 | 0.00 | 0.00 | 0.00 | 91 | 1016.6 |
| 20260507074821 | 15 | 4 | 6.4 | 9.7 | 0.00 | 0.00 | 0.00 | 91 | 1016.8 |
| 20260507074318 | 15 | 50 | 6.4 | 11.3 | 0.00 | 0.00 | 0.00 | 90 | 1017.1 |
| 20260507073815 | 15 | 346 | 8.0 | 9.7 | 0.00 | 0.00 | 0.00 | 90 | 1017.2 |
| 20260507073312 | 15 | 37 | 3.2 | 3.2 | 0.00 | 0.00 | 0.00 | 90 | 1017.1 |
| 20260507072809 | 15 | 48 | 3.2 | 6.4 | 0.00 | 0.00 | 0.00 | 90 | 1016.8 |
| 20260507072308 | 15 | 47 | 6.4 | 9.7 | 0.00 | 0.00 | 0.00 | 90 | 1016.9 |
| 20260507071804 | 15 | 52 | 9.7 | 12.9 | 0.00 | 0.00 | 0.00 | 89 | 1016.8 |
| 20260507071300 | 15 | 17 | 6.4 | 11.3 | 0.00 | 0.00 | 0.00 | 89 | 1017.0 |
| 20260507070757 | 15 | 15 | 3.2 | 4.8 | 0.00 | 0.00 | 0.00 | 88 | 1017.2 |
| 20260507070254 | 15 | 320 | 4.8 | 11.3 | 0.00 | 0.00 | 0.00 | 88 | 1017.0 |
| 20260507065751 | 15 | 25 | 3.2 | 4.8 | 0.00 | 0.00 | 0.00 | 88 | 1017.0 |
| 20260507065247 | 15 | 1 | 8.0 | 11.3 | 0.00 | 0.00 | 0.00 | 88 | 1016.9 |
| 20260507064745 | 15 | 44 | 11.3 | 12.9 | 0.00 | 0.00 | 0.00 | 88 | 1016.8 |
| 20260507064244 | 15 | 51 | 9.7 | 11.3 | 0.00 | 0.00 | 0.00 | 87 | 1016.5 |
| 20260507063741 | 15 | 29 | 6.4 | 9.7 | 0.00 | 0.00 | 0.00 | 87 | 1016.4 |
| 20260507063237 | 15 | 11 | 9.7 | 12.9 | 0.00 | 0.00 | 0.00 | 87 | 1016.7 |
| 20260507062734 | 15 | 41 | 1.6 | 3.2 | 0.00 | 0.00 | 0.00 | 87 | 1017.0 |
| 20260507062232 | 15 | 318 | 9.7 | 14.5 | 0.00 | 0.00 | 0.00 | 87 | 1017.1 |
| 20260507061730 | 15 | 349 | 12.9 | 17.7 | 0.00 | 0.00 | 0.00 | 87 | 1016.6 |
| 20260507061227 | 15 | 25 | 6.4 | 14.5 | 0.00 | 0.00 | 0.00 | 87 | 1016.6 |
| 20260507060725 | 15 | 30 | 1.6 | 1.6 | 0.00 | 0.00 | 0.00 | 87 | 1017.2 |
| 20260507060222 | 15 | 2 | 6.4 | 6.4 | 0.00 | 0.00 | 0.00 | 87 | 1017.4 |
| 20260507055718 | 15 | 19 | 3.2 | 4.8 | 0.00 | 0.00 | 0.00 | 87 | 1017.2 |
| 20260507055213 | 15 | 4 | 4.8 | 6.4 | 0.00 | 0.00 | 0.00 | 86 | 1017.0 |
| 20260507054709 | 15 | 60 | 6.4 | 11.3 | 0.00 | 0.00 | 0.00 | 86 | 1016.9 |
| 20260507054207 | 15 | 14 | 1.6 | 3.2 | 0.00 | 0.00 | 0.00 | 86 | 1016.7 |
| 20260507053704 | 15 | 359 | 6.4 | 6.4 | 0.00 | 0.00 | 0.00 | 86 | 1016.6 |
| 20260507053202 | 15 | 16 | 4.8 | 6.4 | 0.00 | 0.00 | 0.00 | 86 | 1016.7 |
| 20260507052701 | 15 | 32 | 3.2 | 4.8 | 0.00 | 0.00 | 0.00 | 86 | 1016.7 |
| 20260507052156 | 15 | 47 | 6.4 | 9.7 | 0.00 | 0.00 | 0.00 | 86 | 1016.6 |
| 20260507051654 | 16 | 60 | 6.4 | 6.4 | 0.00 | 0.00 | 0.00 | 86 | 1016.5 |
| 20260507051150 | 16 | 33 | 3.2 | 4.8 | 0.00 | 0.00 | 0.00 | 86 | 1016.7 |
| 20260507050648 | 16 | 11 | 9.7 | 12.9 | 0.00 | 0.00 | 0.00 | 86 | 1016.9 |
| 20260507050144 | 16 | 323 | 3.2 | 4.8 | 0.00 | 0.00 | 0.00 | 86 | 1017.0 |
| 20260507045641 | 16 | 24 | 4.8 | 4.8 | 0.00 | 0.00 | 0.00 | 85 | 1016.6 |
| 20260507045138 | 16 | 353 | 11.3 | 14.5 | 0.00 | 0.00 | 0.00 | 85 | 1016.6 |
| 20260507044634 | 16 | 348 | 9.7 | 12.9 | 0.00 | 0.00 | 0.00 | 85 | 1017.2 |
| 20260507044126 | 16 | 10 | 3.2 | 6.4 | 0.00 | 0.00 | 0.00 | 85 | 1017.0 |
| 20260507043621 | 16 | 36 | 9.7 | 12.9 | 0.00 | 0.00 | 0.00 | 85 | 1016.8 |
| 20260507043119 | 16 | 17 | 8.0 | 14.5 | 0.00 | 0.00 | 0.00 | 84 | 1017.0 |
| 20260507042614 | 16 | 53 | 11.3 | 17.7 | 0.00 | 0.00 | 0.00 | 85 | 1017.1 |
| 20260507042104 | 16 | 48 | 6.4 | 12.9 | 0.00 | 0.00 | 0.00 | 85 | 1016.8 |
| 20260507041601 | 16 | 18 | 4.8 | 6.4 | 0.00 | 0.00 | 0.00 | 85 | 1017.1 |
| 20260507041058 | 16 | 353 | 11.3 | 14.5 | 0.00 | 0.00 | 0.00 | 85 | 1017.0 |
| 20260507040555 | 16 | 12 | 8.0 | 12.9 | 0.00 | 0.00 | 0.00 | 85 | 1017.0 |
| 20260507040051 | 16 | 323 | 4.8 | 9.7 | 0.00 | 0.00 | 0.00 | 86 | 1017.1 |
| 20260507035547 | 16 | 319 | 12.9 | 14.5 | 0.00 | 0.00 | 0.00 | 86 | 1017.2 |
| 20260507035044 | 16 | 24 | 16.1 | 20.9 | 0.00 | 0.00 | 0.00 | 86 | 1017.0 |
| 20260507034540 | 16 | 340 | 8.0 | 9.7 | 0.00 | 0.00 | 0.00 | 86 | 1016.8 |
| 20260507034038 | 16 | 357 | 9.7 | 16.1 | 0.00 | 0.00 | 0.00 | 86 | 1017.1 |
| 20260507033536 | 16 | 3 | 8.0 | 11.3 | 0.00 | 0.00 | 0.00 | 86 | 1016.7 |
| 20260507033033 | 16 | 358 | 8.0 | 14.5 | 0.00 | 0.00 | 0.00 | 86 | 1016.6 |
| 20260507032530 | 16 | 41 | 9.7 | 12.9 | 0.00 | 0.00 | 0.00 | 86 | 1016.6 |
| 20260507032026 | 16 | 355 | 8.0 | 11.3 | 0.00 | 0.00 | 0.00 | 86 | 1017.0 |
| 20260507031522 | 16 | 4 | 1.6 | 1.6 | 0.00 | 0.00 | 0.00 | 86 | 1016.7 |
| 20260507031020 | 16 | 341 | 14.5 | 20.9 | 0.00 | 0.00 | 0.00 | 86 | 1016.7 |
| 20260507030516 | 16 | 359 | 6.4 | 9.7 | 0.00 | 0.00 | 0.00 | 86 | 1016.5 |
| 20260507030009 | 16 | 333 | 9.7 | 12.9 | 0.00 | 0.00 | 0.00 | 86 | 1016.3 |
| 20260507025505 | 16 | 348 | 6.4 | 6.4 | 0.00 | 0.00 | 0.00 | 85 | 1016.5 |
| 20260507025003 | 16 | 32 | 4.8 | 4.8 | 0.00 | 0.00 | 0.00 | 85 | 1016.6 |
| 20260507024501 | 16 | 336 | 11.3 | 12.9 | 0.00 | 0.00 | 0.00 | 85 | 1016.6 |
| 20260507023956 | 16 | 295 | 3.2 | 3.2 | 0.00 | 0.00 | 0.00 | 86 | 1016.3 |
| 20260507023453 | 16 | 4 | 6.4 | 9.7 | 0.00 | 0.00 | 0.00 | 85 | 1016.3 |
| 20260507022950 | 16 | 15 | 3.2 | 4.8 | 0.00 | 0.00 | 0.00 | 85 | 1016.3 |
| 20260507022447 | 16 | 357 | 4.8 | 6.4 | 0.00 | 0.00 | 0.00 | 85 | 1016.0 |
| 20260507021942 | 16 | 353 | 6.4 | 6.4 | 0.00 | 0.00 | 0.00 | 85 | 1015.9 |
| 20260507021437 | 16 | 353 | 6.4 | 6.4 | 0.00 | 0.00 | 0.00 | 85 | 1015.9 |
| 20260507020930 | 16 | 283 | 1.6 | 3.2 | 0.00 | 0.00 | 0.00 | 85 | 1016.0 |
| 20260507020426 | 16 | 339 | 9.7 | 12.9 | 0.00 | 0.00 | 0.00 | 85 | 1015.7 |
| 20260507015924 | 16 | 331 | 6.4 | 6.4 | 0.00 | 0.00 | 0.00 | 85 | 1015.9 |
| 20260507015422 | 16 | 356 | 6.4 | 9.7 | 0.00 | 0.00 | 0.00 | 85 | 1015.6 |
| 20260507014919 | 16 | 325 | 8.0 | 11.3 | 0.00 | 0.00 | 0.00 | 85 | 1015.6 |
| 20260507014415 | 16 | 319 | 6.4 | 9.7 | 0.00 | 0.00 | 0.00 | 86 | 1015.6 |
| 20260507013911 | 16 | 2 | 6.4 | 6.4 | 0.00 | 0.00 | 0.00 | 85 | 1015.2 |
| 20260507013408 | 16 | 357 | 8.0 | 11.3 | 0.00 | 0.00 | 0.00 | 85 | 1015.3 |
| 20260507012905 | 16 | 344 | 9.7 | 12.9 | 0.00 | 0.00 | 0.00 | 85 | 1015.0 |
| 20260507012401 | 16 | 321 | 9.7 | 12.9 | 0.00 | 0.00 | 0.00 | 85 | 1015.0 |
| 20260507011853 | 16 | 319 | 4.8 | 6.4 | 0.00 | 0.00 | 0.00 | 85 | 1015.1 |
| 20260507011349 | 16 | 340 | 8.0 | 11.3 | 0.00 | 0.00 | 0.00 | 85 | 1014.7 |
| 20260507010844 | 16 | 344 | 6.4 | 9.7 | 0.00 | 0.00 | 0.00 | 85 | 1015.2 |
| 20260507010340 | 16 | 293 | 9.7 | 14.5 | 0.00 | 0.00 | 0.00 | 84 | 1015.0 |
| 20260507005837 | 16 | 338 | 6.4 | 6.4 | 0.00 | 0.00 | 0.00 | 85 | 1014.6 |
| 20260507005334 | 16 | 353 | 6.4 | 9.7 | 0.00 | 0.00 | 0.00 | 85 | 1014.7 |
| 20260507004831 | 16 | 328 | 9.7 | 14.5 | 0.00 | 0.00 | 0.00 | 85 | 1014.6 |
| 20260507004328 | 16 | 343 | 9.7 | 12.9 | 0.00 | 0.00 | 0.00 | 85 | 1014.5 |
| 20260507003825 | 16 | 336 | 1.6 | 1.6 | 0.00 | 0.00 | 0.00 | 85 | 1014.7 |
| 20260507003321 | 16 | 344 | 6.4 | 6.4 | 0.00 | 0.00 | 0.00 | 84 | 1014.4 |
| 20260507002815 | 16 | 344 | 8.0 | 9.7 | 0.00 | 0.00 | 0.00 | 84 | 1014.4 |
| 20260507002311 | 16 | 329 | 4.8 | 4.8 | 0.00 | 0.00 | 0.00 | 85 | 1014.5 |
| 20260507001803 | 16 | 347 | 9.7 | 14.5 | 0.00 | 0.00 | 0.00 | 85 | 1014.6 |
| 20260507001301 | 16 | 337 | 11.3 | 20.9 | 0.00 | 0.00 | 0.00 | 85 | 1014.5 |
| 20260507000756 | 16 | 348 | 6.4 | 11.3 | 0.00 | 0.00 | 0.00 | 85 | 1014.7 |
| 20260507000252 | 16 | 318 | 4.8 | 4.8 | 0.00 | 0.00 | 0.00 | 85 | 1014.5 |
| 20260506235749 | 16 | 309 | 3.2 | 4.8 | 0.00 | 0.00 | 0.00 | 85 | 1014.1 |
| 20260506235244 | 16 | 341 | 6.4 | 9.7 | 0.00 | 0.00 | 0.00 | 85 | 1014.7 |
| 20260506234742 | 16 | 340 | 3.2 | 4.8 | 0.00 | 0.00 | 0.00 | 85 | 1014.5 |
| 20260506234239 | 16 | 359 | 9.7 | 12.9 | 0.00 | 0.00 | 0.00 | 85 | 1014.3 |
| 20260506233737 | 16 | 344 | 4.8 | 6.4 | 0.00 | 0.00 | 0.00 | 85 | 1014.2 |
| 20260506233233 | 16 | 326 | 8.0 | 9.7 | 0.00 | 0.00 | 0.00 | 85 | 1014.3 |
| 20260506232730 | 16 | 357 | 3.2 | 4.8 | 0.00 | 0.00 | 0.00 | 85 | 1014.3 |
| 20260506232224 | 16 | 337 | 9.7 | 11.3 | 0.00 | 0.00 | 0.00 | 85 | 1014.3 |
| 20260506231722 | 16 | 326 | 6.4 | 11.3 | 0.00 | 0.00 | 0.00 | 85 | 1014.2 |
| 20260506231220 | 16 | 332 | 8.0 | 11.3 | 0.00 | 0.00 | 0.00 | 85 | 1014.3 |
| 20260506230717 | 16 | 344 | 4.8 | 6.4 | 0.00 | 0.00 | 0.00 | 85 | 1014.3 |
| 20260506230214 | 16 | 357 | 9.7 | 12.9 | 0.00 | 0.00 | 0.00 | 86 | 1014.1 |
| 20260506225710 | 16 | 345 | 4.8 | 4.8 | 0.00 | 0.00 | 0.00 | 86 | 1014.3 |
| 20260506225207 | 16 | 277 | 6.4 | 6.4 | 0.00 | 0.00 | 0.00 | 86 | 1014.2 |
| 20260506224704 | 16 | 5 | 6.4 | 11.3 | 0.00 | 0.00 | 0.00 | 86 | 1014.0 |
| 20260506224201 | 16 | 342 | 6.4 | 11.3 | 0.00 | 0.00 | 0.00 | 86 | 1014.2 |
| 20260506223657 | 15 | 21 | 4.8 | 6.4 | 0.00 | 0.00 | 0.00 | 86 | 1014.2 |
| 20260506223153 | 16 | 349 | 9.7 | 14.5 | 0.00 | 0.00 | 0.00 | 86 | 1014.2 |
| 20260506222650 | 15 | 332 | 4.8 | 6.4 | 0.00 | 0.00 | 0.00 | 86 | 1014.2 |
| 20260506222145 | 15 | 326 | 6.4 | 6.4 | 0.00 | 0.00 | 0.00 | 87 | 1014.3 |
| 20260506221644 | 15 | 336 | 8.0 | 11.3 | 0.00 | 0.00 | 0.00 | 87 | 1014.3 |
| 20260506221142 | 15 | 326 | 14.5 | 22.5 | 0.00 | 0.00 | 0.00 | 86 | 1014.4 |
| 20260506220638 | 16 | 333 | 16.1 | 17.7 | 0.00 | 0.00 | 0.00 | 85 | 1014.3 |
| 20260506220133 | 16 | 320 | 12.9 | 16.1 | 0.00 | 0.00 | 0.00 | 86 | 1014.1 |
| 20260506215630 | 16 | 346 | 3.2 | 9.7 | 0.00 | 0.00 | 0.00 | 85 | 1014.0 |
| 20260506215125 | 16 | 307 | 3.2 | 3.2 | 0.00 | 0.00 | 0.00 | 85 | 1013.8 |
| 20260506214622 | 16 | 343 | 9.7 | 16.1 | 0.00 | 0.00 | 0.00 | 85 | 1014.0 |
| 20260506214120 | 17 | 334 | 9.7 | 11.3 | 0.00 | 0.00 | 0.00 | 83 | 1014.0 |
| 20260506213618 | 16 | 323 | 8.0 | 12.9 | 0.00 | 0.00 | 0.00 | 84 | 1013.9 |
| 20260506213115 | 16 | 312 | 4.8 | 9.7 | 0.00 | 0.00 | 0.00 | 85 | 1014.0 |
| 20260506212612 | 16 | 344 | 11.3 | 16.1 | 0.00 | 0.00 | 0.00 | 85 | 1014.2 |
| 20260506212107 | 16 | 298 | 6.4 | 9.7 | 0.00 | 0.00 | 0.00 | 84 | 1014.0 |
| 20260506211603 | 16 | 303 | 6.4 | 6.4 | 0.00 | 0.00 | 0.00 | 85 | 1014.3 |
| 20260506211100 | 16 | 273 | 14.5 | 20.9 | 0.00 | 0.00 | 0.00 | 84 | 1014.2 |
| 20260506210556 | 16 | 289 | 0.0 | 1.6 | 0.00 | 0.00 | 0.00 | 84 | 1014.2 |
| 20260506210053 | 16 | 340 | 14.5 | 24.1 | 0.00 | 0.00 | 0.00 | 84 | 1014.2 |
| 20260506205550 | 16 | 331 | 12.9 | 17.7 | 0.00 | 0.00 | 0.00 | 84 | 1014.6 |
| 20260506205045 | 16 | 344 | 12.9 | 14.5 | 0.00 | 0.00 | 0.00 | 84 | 1014.5 |
| 20260506204543 | 16 | 295 | 11.3 | 14.5 | 0.00 | 0.00 | 0.00 | 85 | 1014.7 |
| 20260506204040 | 16 | 305 | 19.3 | 22.5 | 0.00 | 0.00 | 0.00 | 84 | 1014.6 |
| 20260506203539 | 17 | 29 | 12.9 | 16.1 | 0.00 | 0.00 | 0.00 | 84 | 1014.6 |
| 20260506203035 | 17 | 287 | 11.3 | 14.5 | 0.00 | 0.00 | 0.00 | 84 | 1014.3 |
| 20260506202532 | 17 | 315 | 12.9 | 17.7 | 0.00 | 0.00 | 0.00 | 83 | 1014.4 |
| 20260506202028 | 17 | 293 | 12.9 | 14.5 | 0.00 | 0.00 | 0.00 | 82 | 1014.4 |
| 20260506201526 | 17 | 324 | 11.3 | 14.5 | 0.00 | 0.00 | 0.00 | 83 | 1014.0 |
| 20260506201022 | 18 | 325 | 6.4 | 17.7 | 0.00 | 0.00 | 0.00 | 83 | 1014.1 |
| 20260506200519 | 18 | 314 | 22.5 | 27.4 | 0.00 | 0.00 | 0.00 | 82 | 1014.1 |
| 20260506200016 | 18 | 323 | 14.5 | 17.7 | 0.00 | 0.00 | 0.00 | 82 | 1013.9 |
| 20260506195513 | 18 | 335 | 17.7 | 24.1 | 0.00 | 0.00 | 0.00 | 82 | 1013.9 |
| 20260506195009 | 18 | 324 | 16.1 | 20.9 | 0.00 | 0.00 | 0.00 | 83 | 1014.0 |
| 20260506194507 | 19 | 285 | 11.3 | 16.1 | 0.00 | 0.00 | 0.00 | 83 | 1013.9 |
| 20260506194003 | 18 | 335 | 14.5 | 17.7 | 0.00 | 0.00 | 0.00 | 84 | 1013.7 |
| 20260506193501 | 19 | 12 | 16.1 | 25.7 | 0.00 | 0.00 | 0.00 | 82 | 1014.0 |
| 20260506192956 | 19 | 321 | 11.3 | 14.5 | 0.00 | 0.00 | 0.00 | 83 | 1013.7 |
| 20260506192454 | 19 | 316 | 9.7 | 12.9 | 0.00 | 0.00 | 0.00 | 83 | 1013.9 |
| 20260506191950 | 20 | 350 | 6.4 | 9.7 | 0.00 | 0.00 | 0.00 | 82 | 1013.8 |
| 20260506191447 | 20 | 285 | 12.9 | 16.1 | 0.00 | 0.00 | 0.00 | 82 | 1013.9 |
| 20260506190943 | 20 | 324 | 9.7 | 11.3 | 0.00 | 0.00 | 0.00 | 81 | 1013.8 |
| 20260506190440 | 21 | 288 | 11.3 | 14.5 | 0.00 | 0.00 | 0.00 | 80 | 1013.9 |
| 20260506185937 | 21 | 270 | 12.9 | 17.7 | 0.00 | 0.00 | 0.00 | 80 | 1013.9 |
| 20260506185434 | 21 | 346 | 6.4 | 11.3 | 0.00 | 0.00 | 0.00 | 80 | 1013.7 |
| 20260506184931 | 21 | 15 | 6.4 | 11.3 | 0.00 | 0.00 | 0.00 | 79 | 1013.7 |
| 20260506184428 | 21 | 305 | 11.3 | 12.9 | 0.00 | 0.00 | 0.00 | 80 | 1013.7 |
| 20260506183925 | 21 | 350 | 9.7 | 12.9 | 0.00 | 0.00 | 0.00 | 81 | 1013.6 |
| 20260506183420 | 22 | 311 | 9.7 | 12.9 | 0.00 | 0.00 | 0.00 | 78 | 1013.7 |
| 20260506182918 | 21 | 356 | 3.2 | 4.8 | 0.00 | 0.00 | 0.00 | 79 | 1013.7 |
| 20260506182415 | 21 | 39 | 9.7 | 12.9 | 0.00 | 0.00 | 0.00 | 80 | 1013.7 |
| 20260506181912 | 21 | 332 | 8.0 | 11.3 | 0.00 | 0.00 | 0.00 | 80 | 1013.5 |
| 20260506181410 | 21 | 356 | 6.4 | 6.4 | 0.00 | 0.00 | 0.00 | 80 | 1014.1 |
| 20260506180907 | 21 | 329 | 4.8 | 6.4 | 0.00 | 0.00 | 0.00 | 80 | 1013.7 |
| 20260506180403 | 21 | 338 | 0.0 | 1.6 | 0.00 | 0.00 | 0.00 | 81 | 1013.5 |
| 20260506175900 | 20 | 29 | 6.4 | 6.4 | 0.00 | 0.00 | 0.00 | 81 | 1013.5 |
| 20260506175356 | 20 | 311 | 11.3 | 12.9 | 0.00 | 0.00 | 0.00 | 83 | 1013.2 |
| 20260506174853 | 20 | 65 | 8.0 | 11.3 | 0.00 | 0.00 | 0.00 | 84 | 1013.4 |
| 20260506174351 | 20 | 8 | 6.4 | 6.4 | 0.00 | 0.00 | 0.00 | 83 | 1013.1 |
| 20260506173848 | 20 | 359 | 9.7 | 11.3 | 0.00 | 0.00 | 0.00 | 84 | 1013.1 |
| 20260506173345 | 19 | 76 | 3.2 | 11.3 | 0.00 | 0.00 | 0.00 | 84 | 1013.4 |
| 20260506172842 | 18 | 32 | 6.4 | 9.7 | 0.00 | 0.00 | 0.00 | 85 | 1013.6 |
| 20260506172338 | 19 | 25 | 4.8 | 6.4 | 0.00 | 0.00 | 0.00 | 85 | 1013.7 |
| 20260506171836 | 18 | 323 | 4.8 | 4.8 | 0.00 | 0.00 | 0.00 | 87 | 1013.4 |
| 20260506171333 | 18 | 26 | 3.2 | 4.8 | 0.00 | 0.00 | 0.00 | 86 | 1013.5 |
| 20260506170831 | 18 | 33 | 3.2 | 9.7 | 0.00 | 0.00 | 0.00 | 88 | 1013.6 |
| 20260506170326 | 17 | 27 | 12.9 | 20.9 | 0.00 | 0.00 | 0.00 | 88 | 1013.6 |
| 20260506165825 | 17 | 43 | 6.4 | 9.7 | 0.00 | 0.00 | 0.00 | 89 | 1013.7 |
| 20260506165323 | 17 | 45 | 8.0 | 9.7 | 0.00 | 0.00 | 0.00 | 89 | 1013.9 |
| 20260506164814 | 17 | 44 | 1.6 | 4.8 | 0.00 | 0.00 | 0.00 | 90 | 1014.0 |
| 20260506164310 | 17 | 25 | 6.4 | 12.9 | 0.00 | 0.00 | 0.00 | 89 | 1014.3 |
| 20260506163808 | 17 | 7 | 9.7 | 14.5 | 0.00 | 0.00 | 0.00 | 89 | 1014.7 |
| 20260506163302 | 17 | 351 | 3.2 | 3.2 | 0.00 | 0.00 | 0.00 | 90 | 1014.4 |
| 20260506162758 | 16 | 21 | 1.6 | 4.8 | 0.00 | 0.00 | 0.00 | 92 | 1014.4 |
| 20260506162256 | 16 | 56 | 1.6 | 3.2 | 0.00 | 0.00 | 0.00 | 93 | 1014.8 |
| 20260506161753 | 16 | 25 | 11.3 | 16.1 | 0.00 | 0.00 | 0.00 | 94 | 1014.5 |
| 20260506161250 | 16 | 333 | 8.0 | 25.7 | 0.00 | 0.00 | 0.00 | 95 | 1015.1 |